sensor_id;sensor_type;location;lat;lon;timestamp;temperature;humidity
15749;DHT22;7976;52.526;13.326;2022-07-09T00:01:23;16.50;99.90
15749;DHT22;7976;52.526;13.326;2022-07-09T00:03:50;16.50;99.90
15749;DHT22;7976;52.526;13.326;2022-07-09T00:06:18;16.40;99.90
15749;DHT22;7976;52.526;13.326;2022-07-09T00:08:45;16.40;99.90
15749;DHT22;7976;52.526;13.326;2022-07-09T00:11:12;16.30;99.90
15749;DHT22;7976;52.526;13.326;2022-07-09T00:13:41;16.30;99.90
15749;DHT22;7976;52.526;13.326;2022-07-09T00:16:08;16.30;99.90
15749;DHT22;7976;52.526;13.326;2022-07-09T00:18:34;16.20;99.90
15749;DHT22;7976;52.526;13.326;2022-07-09T00:21:01;16.20;99.90
15749;DHT22;7976;52.526;13.326;2022-07-09T00:23:29;16.10;99.90
15749;DHT22;7976;52.526;13.326;2022-07-09T00:25:56;16.10;99.90
15749;DHT22;7976;52.526;13.326;2022-07-09T00:28:23;16.00;99.90
15749;DHT22;7976;52.526;13.326;2022-07-09T00:30:51;16.00;99.90
15749;DHT22;7976;52.526;13.326;2022-07-09T00:33:18;16.00;99.90
15749;DHT22;7976;52.526;13.326;2022-07-09T00:35:46;15.90;99.90
15749;DHT22;7976;52.526;13.326;2022-07-09T00:38:13;15.90;99.90
15749;DHT22;7976;52.526;13.326;2022-07-09T00:40:40;15.90;99.90
15749;DHT22;7976;52.526;13.326;2022-07-09T00:43:15;15.90;99.90
15749;DHT22;7976;52.526;13.326;2022-07-09T00:45:44;15.80;99.90
15749;DHT22;7976;52.526;13.326;2022-07-09T00:48:13;15.80;99.90
15749;DHT22;7976;52.526;13.326;2022-07-09T00:50:43;15.80;99.90
15749;DHT22;7976;52.526;13.326;2022-07-09T00:53:12;15.70;99.90
15749;DHT22;7976;52.526;13.326;2022-07-09T00:55:40;15.70;99.90
15749;DHT22;7976;52.526;13.326;2022-07-09T00:58:11;15.70;99.90
15749;DHT22;7976;52.526;13.326;2022-07-09T01:00:39;15.60;99.90
15749;DHT22;7976;52.526;13.326;2022-07-09T01:03:07;15.60;99.90
15749;DHT22;7976;52.526;13.326;2022-07-09T01:05:36;15.60;99.90
15749;DHT22;7976;52.526;13.326;2022-07-09T01:08:03;15.50;99.90
15749;DHT22;7976;52.526;13.326;2022-07-09T01:10:33;15.50;99.90
15749;DHT22;7976;52.526;13.326;2022-07-09T01:13:01;15.40;99.90
15749;DHT22;7976;52.526;13.326;2022-07-09T01:15:30;15.50;99.90
15749;DHT22;7976;52.526;13.326;2022-07-09T01:17:57;15.40;99.90
15749;DHT22;7976;52.526;13.326;2022-07-09T01:20:26;15.40;99.90
15749;DHT22;7976;52.526;13.326;2022-07-09T01:22:55;15.40;99.90
15749;DHT22;7976;52.526;13.326;2022-07-09T01:25:32;15.30;99.90
15749;DHT22;7976;52.526;13.326;2022-07-09T01:28:02;15.30;99.90
15749;DHT22;7976;52.526;13.326;2022-07-09T01:30:32;15.30;99.90
15749;DHT22;7976;52.526;13.326;2022-07-09T01:33:00;15.20;99.90
15749;DHT22;7976;52.526;13.326;2022-07-09T01:35:29;15.20;99.90
15749;DHT22;7976;52.526;13.326;2022-07-09T01:37:56;15.20;99.90
15749;DHT22;7976;52.526;13.326;2022-07-09T01:40:24;15.20;99.90
15749;DHT22;7976;52.526;13.326;2022-07-09T01:42:52;15.20;99.90
15749;DHT22;7976;52.526;13.326;2022-07-09T01:45:19;15.10;99.90
15749;DHT22;7976;52.526;13.326;2022-07-09T01:47:47;15.10;99.90
15749;DHT22;7976;52.526;13.326;2022-07-09T01:50:14;15.10;99.90
15749;DHT22;7976;52.526;13.326;2022-07-09T01:52:42;15.10;99.90
15749;DHT22;7976;52.526;13.326;2022-07-09T01:55:09;15.10;99.90
15749;DHT22;7976;52.526;13.326;2022-07-09T01:57:36;15.10;99.90
15749;DHT22;7976;52.526;13.326;2022-07-09T02:00:04;15.00;99.90
15749;DHT22;7976;52.526;13.326;2022-07-09T02:02:38;15.00;99.90
15749;DHT22;7976;52.526;13.326;2022-07-09T02:05:05;14.90;99.90
15749;DHT22;7976;52.526;13.326;2022-07-09T02:07:33;14.90;99.90
15749;DHT22;7976;52.526;13.326;2022-07-09T02:10:01;14.80;99.90
15749;DHT22;7976;52.526;13.326;2022-07-09T02:12:28;14.80;99.90
15749;DHT22;7976;52.526;13.326;2022-07-09T02:14:55;14.70;99.90
15749;DHT22;7976;52.526;13.326;2022-07-09T02:17:22;14.70;99.90
15749;DHT22;7976;52.526;13.326;2022-07-09T02:19:48;14.60;99.90
15749;DHT22;7976;52.526;13.326;2022-07-09T02:22:15;14.60;99.90
15749;DHT22;7976;52.526;13.326;2022-07-09T02:24:43;14.60;99.90
15749;DHT22;7976;52.526;13.326;2022-07-09T02:27:11;14.60;99.90
15749;DHT22;7976;52.526;13.326;2022-07-09T02:29:38;14.50;99.90
15749;DHT22;7976;52.526;13.326;2022-07-09T02:32:06;14.50;99.90
15749;DHT22;7976;52.526;13.326;2022-07-09T02:34:35;14.50;99.90
15749;DHT22;7976;52.526;13.326;2022-07-09T02:37:03;14.60;99.90
15749;DHT22;7976;52.526;13.326;2022-07-09T02:39:30;14.60;99.90
15749;DHT22;7976;52.526;13.326;2022-07-09T02:41:57;14.60;99.90
15749;DHT22;7976;52.526;13.326;2022-07-09T02:44:25;14.60;99.90
15749;DHT22;7976;52.526;13.326;2022-07-09T02:46:53;14.60;99.90
15749;DHT22;7976;52.526;13.326;2022-07-09T02:49:20;14.60;99.90
15749;DHT22;7976;52.526;13.326;2022-07-09T02:51:48;14.70;99.90
15749;DHT22;7976;52.526;13.326;2022-07-09T02:54:17;14.70;99.90
15749;DHT22;7976;52.526;13.326;2022-07-09T02:56:44;14.70;99.90
15749;DHT22;7976;52.526;13.326;2022-07-09T02:59:10;14.80;99.90
15749;DHT22;7976;52.526;13.326;2022-07-09T03:01:38;14.80;99.90
15749;DHT22;7976;52.526;13.326;2022-07-09T03:04:06;14.80;99.90
15749;DHT22;7976;52.526;13.326;2022-07-09T03:06:33;14.80;99.90
15749;DHT22;7976;52.526;13.326;2022-07-09T03:08:59;14.80;99.90
15749;DHT22;7976;52.526;13.326;2022-07-09T03:11:26;14.80;99.90
15749;DHT22;7976;52.526;13.326;2022-07-09T03:13:53;14.80;99.90
15749;DHT22;7976;52.526;13.326;2022-07-09T03:16:20;14.80;99.90
15749;DHT22;7976;52.526;13.326;2022-07-09T03:18:49;14.90;99.90
15749;DHT22;7976;52.526;13.326;2022-07-09T03:21:15;14.90;99.90
15749;DHT22;7976;52.526;13.326;2022-07-09T03:23:42;14.90;99.90
15749;DHT22;7976;52.526;13.326;2022-07-09T03:26:09;14.90;99.90
15749;DHT22;7976;52.526;13.326;2022-07-09T03:28:36;14.90;99.90
15749;DHT22;7976;52.526;13.326;2022-07-09T03:31:03;14.90;99.90
15749;DHT22;7976;52.526;13.326;2022-07-09T03:33:30;14.90;99.90
15749;DHT22;7976;52.526;13.326;2022-07-09T03:35:58;14.90;99.90
15749;DHT22;7976;52.526;13.326;2022-07-09T03:38:25;14.90;99.90
15749;DHT22;7976;52.526;13.326;2022-07-09T03:40:52;14.90;99.90
15749;DHT22;7976;52.526;13.326;2022-07-09T03:43:19;14.90;99.90
15749;DHT22;7976;52.526;13.326;2022-07-09T03:45:46;14.90;99.90
15749;DHT22;7976;52.526;13.326;2022-07-09T03:48:13;14.90;99.90
15749;DHT22;7976;52.526;13.326;2022-07-09T03:50:40;14.90;99.90
15749;DHT22;7976;52.526;13.326;2022-07-09T03:53:08;15.00;99.90
15749;DHT22;7976;52.526;13.326;2022-07-09T03:55:35;15.00;99.90
15749;DHT22;7976;52.526;13.326;2022-07-09T03:58:02;15.00;99.90
15749;DHT22;7976;52.526;13.326;2022-07-09T04:00:29;15.00;99.90
15749;DHT22;7976;52.526;13.326;2022-07-09T04:02:55;15.00;99.90
15749;DHT22;7976;52.526;13.326;2022-07-09T04:05:22;15.10;99.90
15749;DHT22;7976;52.526;13.326;2022-07-09T04:07:49;15.10;99.90
15749;DHT22;7976;52.526;13.326;2022-07-09T04:10:18;15.20;99.90
15749;DHT22;7976;52.526;13.326;2022-07-09T04:12:44;15.20;99.90
15749;DHT22;7976;52.526;13.326;2022-07-09T04:15:11;15.10;99.90
15749;DHT22;7976;52.526;13.326;2022-07-09T04:17:38;15.10;99.90
15749;DHT22;7976;52.526;13.326;2022-07-09T04:20:06;15.20;99.90
15749;DHT22;7976;52.526;13.326;2022-07-09T04:22:34;15.20;99.90
15749;DHT22;7976;52.526;13.326;2022-07-09T04:25:00;15.20;99.90
15749;DHT22;7976;52.526;13.326;2022-07-09T04:27:28;15.30;99.90
15749;DHT22;7976;52.526;13.326;2022-07-09T04:29:55;15.30;99.90
15749;DHT22;7976;52.526;13.326;2022-07-09T04:32:23;15.30;99.90
15749;DHT22;7976;52.526;13.326;2022-07-09T04:34:50;15.30;99.90
15749;DHT22;7976;52.526;13.326;2022-07-09T04:37:17;15.40;99.90
15749;DHT22;7976;52.526;13.326;2022-07-09T04:39:44;15.40;99.90
15749;DHT22;7976;52.526;13.326;2022-07-09T04:42:11;15.40;99.90
15749;DHT22;7976;52.526;13.326;2022-07-09T04:44:40;15.40;99.90
15749;DHT22;7976;52.526;13.326;2022-07-09T04:47:07;15.40;99.90
15749;DHT22;7976;52.526;13.326;2022-07-09T04:49:34;15.50;99.90
15749;DHT22;7976;52.526;13.326;2022-07-09T04:52:01;15.50;99.90
15749;DHT22;7976;52.526;13.326;2022-07-09T04:54:28;15.50;99.90
15749;DHT22;7976;52.526;13.326;2022-07-09T04:56:54;15.50;99.90
15749;DHT22;7976;52.526;13.326;2022-07-09T04:59:21;15.50;99.90
15749;DHT22;7976;52.526;13.326;2022-07-09T05:01:49;15.50;99.90
15749;DHT22;7976;52.526;13.326;2022-07-09T05:04:16;15.50;99.90
15749;DHT22;7976;52.526;13.326;2022-07-09T05:06:43;15.50;99.90
15749;DHT22;7976;52.526;13.326;2022-07-09T05:09:10;15.50;99.90
15749;DHT22;7976;52.526;13.326;2022-07-09T05:11:36;15.50;99.90
15749;DHT22;7976;52.526;13.326;2022-07-09T05:14:03;15.50;99.90
15749;DHT22;7976;52.526;13.326;2022-07-09T05:16:30;15.50;99.90
15749;DHT22;7976;52.526;13.326;2022-07-09T05:18:58;15.50;99.90
15749;DHT22;7976;52.526;13.326;2022-07-09T05:21:25;15.50;99.90
15749;DHT22;7976;52.526;13.326;2022-07-09T05:23:52;15.60;99.90
15749;DHT22;7976;52.526;13.326;2022-07-09T05:26:19;15.60;99.90
15749;DHT22;7976;52.526;13.326;2022-07-09T05:28:46;15.60;99.90
15749;DHT22;7976;52.526;13.326;2022-07-09T05:31:13;15.70;99.90
15749;DHT22;7976;52.526;13.326;2022-07-09T05:33:39;15.70;99.90
15749;DHT22;7976;52.526;13.326;2022-07-09T05:36:07;15.70;99.90
15749;DHT22;7976;52.526;13.326;2022-07-09T05:38:34;15.70;99.90
15749;DHT22;7976;52.526;13.326;2022-07-09T05:41:01;15.80;99.90
15749;DHT22;7976;52.526;13.326;2022-07-09T05:43:28;15.90;99.90
15749;DHT22;7976;52.526;13.326;2022-07-09T05:45:55;15.90;99.90
15749;DHT22;7976;52.526;13.326;2022-07-09T05:48:21;16.00;99.90
15749;DHT22;7976;52.526;13.326;2022-07-09T05:50:48;16.10;99.90
15749;DHT22;7976;52.526;13.326;2022-07-09T05:53:17;16.10;99.90
15749;DHT22;7976;52.526;13.326;2022-07-09T05:55:43;16.20;99.90
15749;DHT22;7976;52.526;13.326;2022-07-09T05:58:11;16.30;99.90
15749;DHT22;7976;52.526;13.326;2022-07-09T06:00:38;16.40;99.90
15749;DHT22;7976;52.526;13.326;2022-07-09T06:03:05;16.40;99.90
15749;DHT22;7976;52.526;13.326;2022-07-09T06:05:32;16.40;99.90
15749;DHT22;7976;52.526;13.326;2022-07-09T06:07:59;16.40;99.90
15749;DHT22;7976;52.526;13.326;2022-07-09T06:10:27;16.50;99.90
15749;DHT22;7976;52.526;13.326;2022-07-09T06:12:54;16.50;99.90
15749;DHT22;7976;52.526;13.326;2022-07-09T06:15:21;16.50;99.90
15749;DHT22;7976;52.526;13.326;2022-07-09T06:17:47;16.60;99.90
15749;DHT22;7976;52.526;13.326;2022-07-09T06:20:16;16.60;99.90
15749;DHT22;7976;52.526;13.326;2022-07-09T06:22:43;16.70;99.90
15749;DHT22;7976;52.526;13.326;2022-07-09T06:25:09;16.70;99.90
15749;DHT22;7976;52.526;13.326;2022-07-09T06:27:38;16.80;99.90
15749;DHT22;7976;52.526;13.326;2022-07-09T06:30:06;16.90;99.90
15749;DHT22;7976;52.526;13.326;2022-07-09T06:32:34;16.90;99.90
15749;DHT22;7976;52.526;13.326;2022-07-09T06:35:01;16.90;99.90
15749;DHT22;7976;52.526;13.326;2022-07-09T06:37:28;16.90;99.90
15749;DHT22;7976;52.526;13.326;2022-07-09T06:39:55;17.00;99.90
15749;DHT22;7976;52.526;13.326;2022-07-09T06:42:23;17.10;99.90
15749;DHT22;7976;52.526;13.326;2022-07-09T06:44:59;17.10;99.90
15749;DHT22;7976;52.526;13.326;2022-07-09T06:47:26;17.00;99.90
15749;DHT22;7976;52.526;13.326;2022-07-09T06:49:53;17.00;99.90
15749;DHT22;7976;52.526;13.326;2022-07-09T06:52:20;17.10;99.90
15749;DHT22;7976;52.526;13.326;2022-07-09T06:54:47;17.30;99.90
15749;DHT22;7976;52.526;13.326;2022-07-09T06:57:14;17.30;99.90
15749;DHT22;7976;52.526;13.326;2022-07-09T06:59:42;17.50;99.90
15749;DHT22;7976;52.526;13.326;2022-07-09T07:02:12;17.50;99.90
15749;DHT22;7976;52.526;13.326;2022-07-09T07:04:41;17.50;99.90
15749;DHT22;7976;52.526;13.326;2022-07-09T07:07:08;17.50;99.90
15749;DHT22;7976;52.526;13.326;2022-07-09T07:09:35;17.60;99.90
15749;DHT22;7976;52.526;13.326;2022-07-09T07:12:03;17.60;99.90
15749;DHT22;7976;52.526;13.326;2022-07-09T07:14:30;17.70;99.90
15749;DHT22;7976;52.526;13.326;2022-07-09T07:16:57;17.80;99.90
15749;DHT22;7976;52.526;13.326;2022-07-09T07:19:25;17.80;99.90
15749;DHT22;7976;52.526;13.326;2022-07-09T07:21:52;17.80;99.90
15749;DHT22;7976;52.526;13.326;2022-07-09T07:24:19;17.70;99.90
15749;DHT22;7976;52.526;13.326;2022-07-09T07:26:46;17.60;99.90
15749;DHT22;7976;52.526;13.326;2022-07-09T07:29:13;17.60;99.90
15749;DHT22;7976;52.526;13.326;2022-07-09T07:31:39;17.50;99.90
15749;DHT22;7976;52.526;13.326;2022-07-09T07:34:06;17.50;99.90
15749;DHT22;7976;52.526;13.326;2022-07-09T07:36:34;17.60;99.90
15749;DHT22;7976;52.526;13.326;2022-07-09T07:39:02;17.60;99.90
15749;DHT22;7976;52.526;13.326;2022-07-09T07:41:29;17.70;99.90
15749;DHT22;7976;52.526;13.326;2022-07-09T07:43:56;17.80;99.90
15749;DHT22;7976;52.526;13.326;2022-07-09T07:46:22;17.90;99.90
15749;DHT22;7976;52.526;13.326;2022-07-09T07:48:49;17.90;99.90
15749;DHT22;7976;52.526;13.326;2022-07-09T07:51:16;18.00;99.90
15749;DHT22;7976;52.526;13.326;2022-07-09T07:53:44;18.00;99.90
15749;DHT22;7976;52.526;13.326;2022-07-09T07:56:11;18.10;99.90
15749;DHT22;7976;52.526;13.326;2022-07-09T07:58:38;18.10;99.90
15749;DHT22;7976;52.526;13.326;2022-07-09T08:01:05;18.10;99.90
15749;DHT22;7976;52.526;13.326;2022-07-09T08:03:31;18.00;99.90
15749;DHT22;7976;52.526;13.326;2022-07-09T08:05:58;17.90;99.90
15749;DHT22;7976;52.526;13.326;2022-07-09T08:08:25;17.80;99.90
15749;DHT22;7976;52.526;13.326;2022-07-09T08:10:54;17.80;99.90
15749;DHT22;7976;52.526;13.326;2022-07-09T08:13:21;17.70;99.90
15749;DHT22;7976;52.526;13.326;2022-07-09T08:15:47;17.80;99.90
15749;DHT22;7976;52.526;13.326;2022-07-09T08:18:14;17.80;99.90
15749;DHT22;7976;52.526;13.326;2022-07-09T08:20:41;17.80;99.90
15749;DHT22;7976;52.526;13.326;2022-07-09T08:23:09;17.90;99.90
15749;DHT22;7976;52.526;13.326;2022-07-09T08:25:36;18.00;99.90
15749;DHT22;7976;52.526;13.326;2022-07-09T08:28:05;17.90;99.90
15749;DHT22;7976;52.526;13.326;2022-07-09T08:30:32;18.00;99.90
15749;DHT22;7976;52.526;13.326;2022-07-09T08:32:59;18.10;99.90
15749;DHT22;7976;52.526;13.326;2022-07-09T08:35:26;18.10;99.90
15749;DHT22;7976;52.526;13.326;2022-07-09T08:37:53;18.20;99.90
15749;DHT22;7976;52.526;13.326;2022-07-09T08:40:20;18.20;99.90
15749;DHT22;7976;52.526;13.326;2022-07-09T08:42:48;18.30;99.90
15749;DHT22;7976;52.526;13.326;2022-07-09T08:45:17;18.40;99.90
15749;DHT22;7976;52.526;13.326;2022-07-09T08:47:45;18.50;99.90
15749;DHT22;7976;52.526;13.326;2022-07-09T08:50:12;18.50;99.90
15749;DHT22;7976;52.526;13.326;2022-07-09T08:52:40;18.70;99.90
15749;DHT22;7976;52.526;13.326;2022-07-09T08:55:08;18.80;99.90
15749;DHT22;7976;52.526;13.326;2022-07-09T08:57:36;18.90;99.90
15749;DHT22;7976;52.526;13.326;2022-07-09T09:00:04;19.00;99.90
15749;DHT22;7976;52.526;13.326;2022-07-09T09:02:37;18.90;99.90
15749;DHT22;7976;52.526;13.326;2022-07-09T09:05:09;18.90;99.90
15749;DHT22;7976;52.526;13.326;2022-07-09T09:07:38;18.70;99.90
15749;DHT22;7976;52.526;13.326;2022-07-09T09:10:05;18.60;99.90
15749;DHT22;7976;52.526;13.326;2022-07-09T09:12:33;18.50;99.90
15749;DHT22;7976;52.526;13.326;2022-07-09T09:15:04;18.40;99.90
15749;DHT22;7976;52.526;13.326;2022-07-09T09:17:31;18.20;99.90
15749;DHT22;7976;52.526;13.326;2022-07-09T09:20:10;18.20;99.90
15749;DHT22;7976;52.526;13.326;2022-07-09T09:22:44;18.20;99.90
15749;DHT22;7976;52.526;13.326;2022-07-09T09:25:15;18.10;99.90
15749;DHT22;7976;52.526;13.326;2022-07-09T09:27:50;18.10;99.90
15749;DHT22;7976;52.526;13.326;2022-07-09T09:30:18;17.90;99.90
15749;DHT22;7976;52.526;13.326;2022-07-09T09:32:54;17.60;99.90
15749;DHT22;7976;52.526;13.326;2022-07-09T09:35:24;17.30;99.90
15749;DHT22;7976;52.526;13.326;2022-07-09T09:37:53;17.10;99.90
15749;DHT22;7976;52.526;13.326;2022-07-09T09:40:20;16.90;99.90
15749;DHT22;7976;52.526;13.326;2022-07-09T09:42:49;16.70;99.90
15749;DHT22;7976;52.526;13.326;2022-07-09T09:45:16;16.60;99.90
15749;DHT22;7976;52.526;13.326;2022-07-09T09:47:46;16.60;99.90
15749;DHT22;7976;52.526;13.326;2022-07-09T09:50:17;16.60;99.90
15749;DHT22;7976;52.526;13.326;2022-07-09T09:52:48;16.60;99.90
15749;DHT22;7976;52.526;13.326;2022-07-09T09:55:18;16.70;99.90
15749;DHT22;7976;52.526;13.326;2022-07-09T09:57:46;16.80;99.90
15749;DHT22;7976;52.526;13.326;2022-07-09T10:00:15;16.80;99.90
15749;DHT22;7976;52.526;13.326;2022-07-09T10:02:44;17.10;99.90
15749;DHT22;7976;52.526;13.326;2022-07-09T10:05:12;17.30;99.90
15749;DHT22;7976;52.526;13.326;2022-07-09T10:07:39;17.50;99.90
15749;DHT22;7976;52.526;13.326;2022-07-09T10:10:16;17.70;99.90
15749;DHT22;7976;52.526;13.326;2022-07-09T10:12:44;17.80;99.90
15749;DHT22;7976;52.526;13.326;2022-07-09T10:15:20;18.00;99.90
15749;DHT22;7976;52.526;13.326;2022-07-09T10:17:48;18.00;99.90
15749;DHT22;7976;52.526;13.326;2022-07-09T10:20:15;18.00;99.90
15749;DHT22;7976;52.526;13.326;2022-07-09T10:22:43;17.90;99.90
15749;DHT22;7976;52.526;13.326;2022-07-09T10:25:13;18.00;99.90
15749;DHT22;7976;52.526;13.326;2022-07-09T10:27:49;18.20;99.90
15749;DHT22;7976;52.526;13.326;2022-07-09T10:30:24;18.50;99.90
15749;DHT22;7976;52.526;13.326;2022-07-09T10:33:03;18.80;99.90
15749;DHT22;7976;52.526;13.326;2022-07-09T10:35:38;19.00;99.90
15749;DHT22;7976;52.526;13.326;2022-07-09T10:38:07;19.20;99.90
15749;DHT22;7976;52.526;13.326;2022-07-09T10:40:40;19.30;99.90
15749;DHT22;7976;52.526;13.326;2022-07-09T10:43:09;19.50;99.90
15749;DHT22;7976;52.526;13.326;2022-07-09T10:45:37;19.70;99.90
15749;DHT22;7976;52.526;13.326;2022-07-09T10:48:07;19.90;99.90
15749;DHT22;7976;52.526;13.326;2022-07-09T10:50:38;20.10;99.90
15749;DHT22;7976;52.526;13.326;2022-07-09T10:53:09;20.40;99.90
15749;DHT22;7976;52.526;13.326;2022-07-09T10:55:40;20.50;99.90
15749;DHT22;7976;52.526;13.326;2022-07-09T10:58:16;20.50;99.90
15749;DHT22;7976;52.526;13.326;2022-07-09T11:00:43;20.50;99.90
15749;DHT22;7976;52.526;13.326;2022-07-09T11:03:10;20.40;99.90
15749;DHT22;7976;52.526;13.326;2022-07-09T11:05:44;20.30;99.90
15749;DHT22;7976;52.526;13.326;2022-07-09T11:08:12;20.30;99.90
15749;DHT22;7976;52.526;13.326;2022-07-09T11:10:40;20.30;99.90
15749;DHT22;7976;52.526;13.326;2022-07-09T11:13:08;20.50;99.90
15749;DHT22;7976;52.526;13.326;2022-07-09T11:15:36;20.60;99.90
15749;DHT22;7976;52.526;13.326;2022-07-09T11:18:06;20.80;99.90
15749;DHT22;7976;52.526;13.326;2022-07-09T11:20:37;21.00;99.90
15749;DHT22;7976;52.526;13.326;2022-07-09T11:23:05;21.20;99.90
15749;DHT22;7976;52.526;13.326;2022-07-09T11:25:32;21.40;99.90
15749;DHT22;7976;52.526;13.326;2022-07-09T11:28:01;21.40;99.90
15749;DHT22;7976;52.526;13.326;2022-07-09T11:30:29;21.50;99.90
15749;DHT22;7976;52.526;13.326;2022-07-09T11:32:58;21.60;99.90
15749;DHT22;7976;52.526;13.326;2022-07-09T11:35:26;21.60;99.90
15749;DHT22;7976;52.526;13.326;2022-07-09T11:37:55;21.60;99.90
15749;DHT22;7976;52.526;13.326;2022-07-09T11:40:23;21.70;99.90
15749;DHT22;7976;52.526;13.326;2022-07-09T11:42:51;21.70;99.90
15749;DHT22;7976;52.526;13.326;2022-07-09T11:45:24;21.80;99.90
15749;DHT22;7976;52.526;13.326;2022-07-09T11:48:03;21.70;99.90
15749;DHT22;7976;52.526;13.326;2022-07-09T11:50:31;21.70;99.90
15749;DHT22;7976;52.526;13.326;2022-07-09T11:52:58;21.70;99.90
15749;DHT22;7976;52.526;13.326;2022-07-09T11:55:29;21.50;99.90
15749;DHT22;7976;52.526;13.326;2022-07-09T11:57:57;21.40;99.90
15749;DHT22;7976;52.526;13.326;2022-07-09T12:00:27;21.20;99.90
15749;DHT22;7976;52.526;13.326;2022-07-09T12:02:56;21.20;99.90
15749;DHT22;7976;52.526;13.326;2022-07-09T12:05:27;21.20;99.90
15749;DHT22;7976;52.526;13.326;2022-07-09T12:07:59;21.20;99.90
15749;DHT22;7976;52.526;13.326;2022-07-09T12:10:29;21.20;99.90
15749;DHT22;7976;52.526;13.326;2022-07-09T12:12:58;21.20;99.90
15749;DHT22;7976;52.526;13.326;2022-07-09T12:15:28;21.10;99.90
15749;DHT22;7976;52.526;13.326;2022-07-09T12:17:56;21.00;99.90
15749;DHT22;7976;52.526;13.326;2022-07-09T12:20:24;20.90;99.90
15749;DHT22;7976;52.526;13.326;2022-07-09T12:22:52;20.80;99.90
15749;DHT22;7976;52.526;13.326;2022-07-09T12:25:19;20.70;99.90
15749;DHT22;7976;52.526;13.326;2022-07-09T12:27:46;20.70;99.90
15749;DHT22;7976;52.526;13.326;2022-07-09T12:30:15;20.70;99.90
15749;DHT22;7976;52.526;13.326;2022-07-09T12:32:43;20.70;99.90
15749;DHT22;7976;52.526;13.326;2022-07-09T12:35:11;20.70;99.90
15749;DHT22;7976;52.526;13.326;2022-07-09T12:37:38;20.60;99.90
15749;DHT22;7976;52.526;13.326;2022-07-09T12:40:08;20.00;99.90
15749;DHT22;7976;52.526;13.326;2022-07-09T12:42:37;19.00;99.90
15749;DHT22;7976;52.526;13.326;2022-07-09T12:45:05;18.40;99.90
15749;DHT22;7976;52.526;13.326;2022-07-09T12:47:33;18.00;99.90
15749;DHT22;7976;52.526;13.326;2022-07-09T12:50:01;17.80;99.90
15749;DHT22;7976;52.526;13.326;2022-07-09T12:52:30;17.60;99.90
15749;DHT22;7976;52.526;13.326;2022-07-09T12:54:58;17.50;99.90
15749;DHT22;7976;52.526;13.326;2022-07-09T12:57:26;17.30;99.90
15749;DHT22;7976;52.526;13.326;2022-07-09T12:59:53;17.20;99.90
15749;DHT22;7976;52.526;13.326;2022-07-09T13:02:19;17.20;99.90
15749;DHT22;7976;52.526;13.326;2022-07-09T13:04:46;17.40;99.90
15749;DHT22;7976;52.526;13.326;2022-07-09T13:07:14;17.50;99.90
15749;DHT22;7976;52.526;13.326;2022-07-09T13:09:41;17.60;99.90
15749;DHT22;7976;52.526;13.326;2022-07-09T13:12:08;17.90;99.90
15749;DHT22;7976;52.526;13.326;2022-07-09T13:14:35;18.00;99.90
15749;DHT22;7976;52.526;13.326;2022-07-09T13:17:02;18.10;99.90
15749;DHT22;7976;52.526;13.326;2022-07-09T13:19:29;18.20;99.90
15749;DHT22;7976;52.526;13.326;2022-07-09T13:21:56;18.20;99.90
15749;DHT22;7976;52.526;13.326;2022-07-09T13:24:24;18.30;99.90
15749;DHT22;7976;52.526;13.326;2022-07-09T13:26:51;18.50;99.90
15749;DHT22;7976;52.526;13.326;2022-07-09T13:29:17;18.60;99.90
15749;DHT22;7976;52.526;13.326;2022-07-09T13:31:45;18.70;99.90
15749;DHT22;7976;52.526;13.326;2022-07-09T13:34:15;18.80;99.90
15749;DHT22;7976;52.526;13.326;2022-07-09T13:36:42;18.90;99.90
15749;DHT22;7976;52.526;13.326;2022-07-09T13:39:09;19.00;99.90
15749;DHT22;7976;52.526;13.326;2022-07-09T13:41:37;19.10;99.90
15749;DHT22;7976;52.526;13.326;2022-07-09T13:44:04;19.20;99.90
15749;DHT22;7976;52.526;13.326;2022-07-09T13:46:33;19.30;99.90
15749;DHT22;7976;52.526;13.326;2022-07-09T13:49:00;19.40;99.90
15749;DHT22;7976;52.526;13.326;2022-07-09T13:51:27;19.40;99.90
15749;DHT22;7976;52.526;13.326;2022-07-09T13:53:53;19.50;99.90
15749;DHT22;7976;52.526;13.326;2022-07-09T13:56:21;19.50;99.90
15749;DHT22;7976;52.526;13.326;2022-07-09T13:58:49;19.60;99.90
15749;DHT22;7976;52.526;13.326;2022-07-09T14:01:16;19.70;99.90
15749;DHT22;7976;52.526;13.326;2022-07-09T14:03:45;19.70;99.90
15749;DHT22;7976;52.526;13.326;2022-07-09T14:06:12;19.60;99.90
15749;DHT22;7976;52.526;13.326;2022-07-09T14:08:39;19.60;99.90
15749;DHT22;7976;52.526;13.326;2022-07-09T14:11:06;19.60;99.90
15749;DHT22;7976;52.526;13.326;2022-07-09T14:13:33;19.60;99.90
15749;DHT22;7976;52.526;13.326;2022-07-09T14:16:02;19.60;99.90
15749;DHT22;7976;52.526;13.326;2022-07-09T14:18:29;19.50;99.90
15749;DHT22;7976;52.526;13.326;2022-07-09T14:20:56;19.50;99.90
15749;DHT22;7976;52.526;13.326;2022-07-09T14:23:23;19.50;99.90
15749;DHT22;7976;52.526;13.326;2022-07-09T14:25:50;19.60;99.90
15749;DHT22;7976;52.526;13.326;2022-07-09T14:28:17;19.70;99.90
15749;DHT22;7976;52.526;13.326;2022-07-09T14:30:44;19.80;99.90
15749;DHT22;7976;52.526;13.326;2022-07-09T14:33:12;19.90;99.90
15749;DHT22;7976;52.526;13.326;2022-07-09T14:35:39;19.90;99.90
15749;DHT22;7976;52.526;13.326;2022-07-09T14:38:06;19.90;99.90
15749;DHT22;7976;52.526;13.326;2022-07-09T14:40:33;19.90;99.90
15749;DHT22;7976;52.526;13.326;2022-07-09T14:43:00;19.80;99.90
15749;DHT22;7976;52.526;13.326;2022-07-09T14:45:27;19.80;99.90
15749;DHT22;7976;52.526;13.326;2022-07-09T14:47:53;19.70;99.90
15749;DHT22;7976;52.526;13.326;2022-07-09T14:50:22;19.70;99.90
15749;DHT22;7976;52.526;13.326;2022-07-09T14:52:49;19.60;99.90
15749;DHT22;7976;52.526;13.326;2022-07-09T14:55:16;19.80;99.90
15749;DHT22;7976;52.526;13.326;2022-07-09T14:57:43;19.90;99.90
15749;DHT22;7976;52.526;13.326;2022-07-09T15:00:10;20.10;99.90
15749;DHT22;7976;52.526;13.326;2022-07-09T15:02:38;20.10;99.90
15749;DHT22;7976;52.526;13.326;2022-07-09T15:05:05;20.00;99.90
15749;DHT22;7976;52.526;13.326;2022-07-09T15:07:34;20.00;99.90
15749;DHT22;7976;52.526;13.326;2022-07-09T15:10:02;20.00;99.90
15749;DHT22;7976;52.526;13.326;2022-07-09T15:12:30;20.00;99.90
15749;DHT22;7976;52.526;13.326;2022-07-09T15:14:57;20.00;99.90
15749;DHT22;7976;52.526;13.326;2022-07-09T15:17:24;19.90;99.90
15749;DHT22;7976;52.526;13.326;2022-07-09T15:19:51;19.80;99.90
15749;DHT22;7976;52.526;13.326;2022-07-09T15:22:18;19.70;99.90
15749;DHT22;7976;52.526;13.326;2022-07-09T15:24:46;19.60;99.90
15749;DHT22;7976;52.526;13.326;2022-07-09T15:27:13;19.70;99.90
15749;DHT22;7976;52.526;13.326;2022-07-09T15:29:41;19.70;99.90
15749;DHT22;7976;52.526;13.326;2022-07-09T15:32:07;19.80;99.90
15749;DHT22;7976;52.526;13.326;2022-07-09T15:34:34;20.00;99.90